Hillsdale, MI

5:11 PM EDT on September 22, 2019 (GMT -0400)
Hillsdale Municipal

Weather History for KJYM - May, 2019

Change the Weather History Date:

Sunday, May 19, 2019

  Actual Average Record
Temperature  
Mean Temperature 67 °F -  
Max Temperature 74 °F 71 °F 87 °F (1975)
Min Temperature 60 °F 48 °F 30 °F (2002)
Cooling Degree Days 2    
Growing Degree Days 17 (Base 50)    
Moisture  
Dew Point 59 °F    
Average Humidity 81    
Maximum Humidity 91    
Minimum Humidity 65    
Precipitation  
Precipitation 0.08 in - - ()
Sea Level Pressure  
Sea Level Pressure 29.74 in    
Wind  
Wind Speed 7 mph ()    
Max Wind Speed 17 mph    
Max Gust Speed 26 mph    
Visibility 9.8 miles    
Events Rain    
Averages and records for this station are not official NWS values.
T = Trace of Precipitation, MM = Missing Value Source: Averaged Metar Reports

Daily Weather History Graph

Daily Weather History Graph

Search for Another Location

Airport or City:

Astronomy

May. 19, 2019 Rise Set
Actual Time 6:14 AM EDT 8:55 PM EDT
Civil Twilight 5:42 AM EDT 9:28 PM EDT
Nautical Twilight 5:01 AM EDT 10:08 PM EDT
Astronomical Twilight 4:15 AM EDT 10:55 PM EDT
Moon 9:55 PM EDT (5/19) 6:59 AM EDT (5/19)
Length of Visible Light 15h 45m
Length of Day
14h 41m
Full, 99% of the Moon is Illuminated
May 19
Full
May 26
Last Quarter
Jun 3
New
Jun 10
First Quarter
Jun 17
Full

Hourly Weather History & Observations

Time (EDT) Temp. Dew Point Humidity Pressure Visibility Wind Dir Wind Speed Gust Speed Precip Events Conditions
12:15 AM 61.9 °F 57.7 °F 86% 29.82 in 10.0 mi South 3.5 mph - N/A   Clear
12:16 AM 61.7 °F 57.6 °F 86% 29.82 in 10.0 mi South 3.5 mph - N/A   Clear
12:35 AM 62.6 °F 58.1 °F 85% 29.82 in 10.0 mi SSE 3.5 mph - N/A   Clear
12:36 AM 62.6 °F 58.1 °F 85% 29.82 in 10.0 mi SSE 4.6 mph - N/A   Clear
12:55 AM 61.7 °F 57.9 °F 87% 29.82 in 10.0 mi SSE 3.5 mph - N/A   Clear
12:56 AM 61.7 °F 57.9 °F 87% 29.82 in 10.0 mi SSE 3.5 mph - N/A   Clear
1:15 AM 60.8 °F 58.1 °F 91% 29.82 in 10.0 mi SSE 3.5 mph - N/A   Clear
1:35 AM 60.8 °F 58.1 °F 91% 29.81 in 10.0 mi SE 3.5 mph - N/A   Clear
1:36 AM 61.0 °F 58.3 °F 91% 29.81 in 10.0 mi SE 3.5 mph - N/A   Clear
1:55 AM 60.8 °F 58.1 °F 91% 29.81 in 10.0 mi SE 4.6 mph - N/A   Clear
1:56 AM 60.8 °F 57.9 °F 90% 29.81 in 10.0 mi SE 4.6 mph - N/A   Clear
2:15 AM 60.6 °F 57.4 °F 89% 29.79 in 10.0 mi SSE 3.5 mph - N/A   Clear
2:35 AM 62.8 °F 57.9 °F 84% 29.79 in 10.0 mi SSE 5.8 mph - N/A   Clear
2:55 AM 63.7 °F 57.7 °F 81% 29.79 in 10.0 mi SSE 4.6 mph - N/A   Clear
2:56 AM 63.7 °F 57.7 °F 81% 29.79 in 10.0 mi SSE 5.8 mph - N/A   Clear
3:15 AM 63.5 °F 57.7 °F 81% 29.79 in 10.0 mi SSE 4.6 mph - N/A   Clear
3:16 AM 63.5 °F 57.7 °F 81% 29.79 in 10.0 mi SSE 4.6 mph - N/A   Clear
3:35 AM 64.2 °F 57.6 °F 79% 29.79 in 10.0 mi SSE 3.5 mph - N/A   Scattered Clouds
3:36 AM 64.2 °F 57.6 °F 79% 29.79 in 10.0 mi SSE 3.5 mph - N/A   Scattered Clouds
3:55 AM 62.6 °F 57.2 °F 82% 29.79 in 10.0 mi SE 3.5 mph - N/A   Mostly Cloudy
4:15 AM 63.0 °F 57.4 °F 82% 29.79 in 10.0 mi SSE 4.6 mph - N/A   Scattered Clouds
4:35 AM 63.0 °F 57.7 °F 83% 29.79 in 10.0 mi SSE 4.6 mph - N/A   Scattered Clouds
4:55 AM 62.6 °F 57.9 °F 85% 29.78 in 10.0 mi SE 4.6 mph - N/A   Mostly Cloudy
4:56 AM 62.8 °F 57.9 °F 84% 29.78 in 10.0 mi SE 4.6 mph - N/A   Mostly Cloudy
5:15 AM 62.6 °F 57.7 °F 84% 29.78 in 10.0 mi SE 5.8 mph - N/A   Scattered Clouds
5:35 AM 61.5 °F 57.6 °F 87% 29.78 in 10.0 mi SE 4.6 mph - N/A   Clear
5:55 AM 61.5 °F 57.6 °F 87% 29.77 in 10.0 mi SE 5.8 mph - N/A   Clear
6:15 AM 61.3 °F 57.7 °F 88% 29.77 in 10.0 mi SE 5.8 mph - N/A   Clear
6:16 AM 61.3 °F 57.9 °F 89% 29.77 in 10.0 mi SE 4.6 mph - N/A   Clear
6:35 AM 62.6 °F 58.8 °F 87% 29.76 in 10.0 mi SE 5.8 mph - N/A   Clear
6:36 AM 62.6 °F 59.0 °F 88% 29.76 in 10.0 mi SSE 5.8 mph - N/A   Clear
6:55 AM 63.1 °F 59.2 °F 87% 29.76 in 10.0 mi SSE 5.8 mph - N/A   Clear
7:15 AM 63.9 °F 60.1 °F 87% 29.76 in 10.0 mi SSE 5.8 mph - N/A   Scattered Clouds
7:35 AM 65.5 °F 61.2 °F 86% 29.76 in 10.0 mi SSE 8.1 mph - N/A   Scattered Clouds
7:36 AM 65.5 °F 61.2 °F 86% 29.76 in 10.0 mi SSE 8.1 mph - N/A   Scattered Clouds
7:55 AM 66.4 °F 61.5 °F 84% 29.76 in 10.0 mi SSE 9.2 mph - N/A   Scattered Clouds
7:56 AM 66.6 °F 61.7 °F 84% 29.76 in 10.0 mi SSE 10.4 mph - N/A   Scattered Clouds
8:15 AM 68.9 °F 62.8 °F 81% 29.76 in 10.0 mi South 9.2 mph - N/A   Mostly Cloudy
8:16 AM 68.9 °F 62.8 °F 81% 29.76 in 10.0 mi South 9.2 mph - N/A   Mostly Cloudy
8:35 AM 69.1 °F 62.4 °F 79% 29.76 in 10.0 mi South 9.2 mph - N/A   Mostly Cloudy
8:55 AM 69.1 °F 62.4 °F 79% 29.76 in 10.0 mi South 10.4 mph - N/A   Mostly Cloudy
9:15 AM 69.6 °F 62.6 °F 78% 29.75 in 10.0 mi South 9.2 mph - N/A   Overcast
9:16 AM 69.6 °F 62.6 °F 78% 29.75 in 10.0 mi South 10.4 mph 16.1 mph N/A   Overcast
9:35 AM 70.7 °F 62.6 °F 75% 29.75 in 10.0 mi South 9.2 mph 16.1 mph N/A   Scattered Clouds
9:36 AM 70.7 °F 62.6 °F 75% 29.75 in 10.0 mi South 9.2 mph 16.1 mph N/A   Scattered Clouds
9:55 AM 71.2 °F 62.6 °F 74% 29.75 in 10.0 mi South 9.2 mph 16.1 mph N/A   Scattered Clouds
10:15 AM 70.0 °F 62.6 °F 77% 29.74 in 10.0 mi South 11.5 mph 17.3 mph N/A   Overcast
10:35 AM 72.1 °F 63.1 °F 73% 29.74 in 10.0 mi SSW 9.2 mph 18.4 mph N/A   Overcast
10:55 AM 71.8 °F 62.6 °F 73% 29.74 in 10.0 mi SSW 16.1 mph 26.5 mph N/A   Overcast
10:56 AM 71.6 °F 62.6 °F 73% 29.74 in 10.0 mi SSW 16.1 mph 26.5 mph N/A   Overcast
11:15 AM 72.0 °F 62.6 °F 72% 29.74 in 10.0 mi SSW 12.7 mph 21.9 mph N/A   Overcast
11:16 AM 72.0 °F 62.6 °F 72% 29.74 in 10.0 mi SSW 10.4 mph 19.6 mph N/A   Overcast
11:35 AM 71.8 °F 61.7 °F 70% 29.74 in 10.0 mi SW 17.3 mph 25.3 mph N/A   Overcast
11:55 AM 72.9 °F 62.4 °F 70% 29.74 in 10.0 mi South 12.7 mph 18.4 mph N/A   Overcast
12:15 PM 74.1 °F 61.9 °F 65% 29.73 in 10.0 mi SSW 12.7 mph 23.0 mph N/A   Overcast
12:16 PM 74.1 °F 62.1 °F 66% 29.73 in 10.0 mi SW 12.7 mph 23.0 mph N/A   Overcast
12:35 PM 69.8 °F 62.8 °F 78% 29.74 in 7.0 mi SSW 11.5 mph 21.9 mph N/A Rain Light Rain
12:36 PM 69.6 °F 62.8 °F 79% 29.74 in 7.0 mi SSW 11.5 mph 21.9 mph N/A Rain Light Rain
12:55 PM 69.6 °F 62.1 °F 77% 29.74 in 10.0 mi SSW 13.8 mph 25.3 mph N/A Rain Light Rain
1:15 PM 66.6 °F 62.4 °F 86% 29.74 in 4.0 mi SW 9.2 mph - 0.03 in Rain Rain
1:35 PM 66.0 °F 61.2 °F 84% 29.74 in 7.0 mi SW 15.0 mph 21.9 mph 0.07 in Rain Rain
1:36 PM 65.8 °F 60.8 °F 84% 29.74 in 7.0 mi SW 17.3 mph 24.2 mph 0.07 in Rain Rain
1:55 PM 64.4 °F 58.6 °F 82% 29.73 in 10.0 mi South 6.9 mph - 0.07 in Rain Light Rain
1:56 PM 64.4 °F 58.6 °F 82% 29.73 in 10.0 mi SSW 6.9 mph - 0.07 in Rain Light Rain
2:15 PM 64.8 °F 59.9 °F 84% 29.72 in 10.0 mi South 5.8 mph - N/A Rain Light Rain
2:16 PM 64.8 °F 59.9 °F 84% 29.71 in 10.0 mi South 5.8 mph - N/A Rain Light Rain
2:35 PM 66.4 °F 61.5 °F 84% 29.71 in 10.0 mi SSW 8.1 mph - N/A   Overcast
2:55 PM 66.2 °F 61.0 °F 83% 29.72 in 10.0 mi SW 17.3 mph 21.9 mph N/A Rain Light Rain
3:15 PM 66.2 °F 61.0 °F 83% 29.73 in 10.0 mi SSW 13.8 mph 25.3 mph N/A Rain Light Rain
3:16 PM 66.2 °F 61.0 °F 83% 29.73 in 10.0 mi SSW 10.4 mph 25.3 mph N/A Rain Light Rain
3:35 PM 66.0 °F 59.9 °F 81% 29.72 in 10.0 mi SW 9.2 mph - N/A Rain Light Rain
3:55 PM 66.2 °F 58.6 °F 77% 29.71 in 10.0 mi SSW 11.5 mph 17.3 mph N/A Rain Light Rain
4:15 PM 64.8 °F 57.0 °F 76% 29.72 in 10.0 mi South 10.4 mph 17.3 mph 0.01 in Rain Light Rain
4:35 PM 63.7 °F 57.6 °F 80% 29.69 in 10.0 mi South 9.2 mph - 0.01 in Rain Light Rain
4:36 PM 63.7 °F 57.6 °F 80% 29.69 in 10.0 mi South 8.1 mph - 0.01 in Rain Light Rain
4:55 PM 63.9 °F 59.0 °F 84% 29.71 in 10.0 mi South 11.5 mph - 0.01 in   Mostly Cloudy
4:56 PM 64.0 °F 59.0 °F 84% 29.71 in 10.0 mi South 12.7 mph - 0.01 in   Mostly Cloudy
5:15 PM 63.9 °F 58.6 °F 83% 29.69 in 10.0 mi SSE 12.7 mph 20.7 mph N/A   Scattered Clouds
5:35 PM 65.5 °F 58.1 °F 77% 29.69 in 10.0 mi South 12.7 mph 20.7 mph N/A   Scattered Clouds
5:55 PM 65.3 °F 57.9 °F 77% 29.70 in 10.0 mi South 13.8 mph 26.5 mph N/A   Mostly Cloudy
6:15 PM 64.8 °F 58.6 °F 81% 29.69 in 10.0 mi South 13.8 mph 25.3 mph N/A   Mostly Cloudy
6:16 PM 64.8 °F 58.6 °F 81% 29.69 in 10.0 mi South 15.0 mph 24.2 mph N/A   Mostly Cloudy
6:35 PM 64.8 °F 58.5 °F 80% 29.69 in 10.0 mi South 17.3 mph 25.3 mph N/A   Mostly Cloudy
6:36 PM 64.6 °F 58.3 °F 80% 29.69 in 10.0 mi South 13.8 mph 25.3 mph N/A   Mostly Cloudy
6:55 PM 64.4 °F 58.3 °F 80% 29.69 in 10.0 mi South 9.2 mph 23.0 mph N/A   Overcast
7:15 PM 64.0 °F 58.8 °F 83% 29.68 in 10.0 mi South 16.1 mph 24.2 mph N/A   Overcast
7:35 PM 64.0 °F 59.0 °F 84% 29.68 in 10.0 mi South 9.2 mph 21.9 mph N/A   Overcast
7:36 PM 64.0 °F 59.0 °F 84% 29.68 in 10.0 mi South 10.4 mph 21.9 mph N/A   Mostly Cloudy
7:55 PM 64.8 °F 59.5 °F 83% 29.67 in 10.0 mi South 16.1 mph 23.0 mph N/A   Scattered Clouds
7:56 PM 64.8 °F 59.5 °F 83% 29.67 in 10.0 mi South 13.8 mph 23.0 mph N/A   Scattered Clouds
8:15 PM 64.8 °F 58.3 °F 79% 29.68 in 10.0 mi SSW 13.8 mph 21.9 mph N/A   Clear
8:16 PM 64.8 °F 58.3 °F 79% 29.68 in 10.0 mi SSW 16.1 mph 21.9 mph N/A   Clear
8:35 PM 64.8 °F 56.7 °F 75% 29.68 in 10.0 mi SSW 11.5 mph 21.9 mph N/A   Clear
8:55 PM 64.8 °F 55.9 °F 73% 29.70 in 10.0 mi SSW 13.8 mph 19.6 mph N/A   Scattered Clouds
8:56 PM 64.8 °F 55.8 °F 73% 29.70 in 10.0 mi SSW 12.7 mph 19.6 mph N/A   Scattered Clouds
9:15 PM 64.2 °F 55.4 °F 73% 29.72 in 10.0 mi SW 10.4 mph 18.4 mph N/A   Mostly Cloudy
9:16 PM 64.2 °F 55.4 °F 73% 29.72 in 10.0 mi SW 10.4 mph 18.4 mph N/A   Mostly Cloudy
9:35 PM 63.9 °F 55.6 °F 74% 29.73 in 10.0 mi SW 11.5 mph - N/A   Overcast
9:36 PM 63.9 °F 55.6 °F 74% 29.73 in 10.0 mi WSW 9.2 mph - N/A   Overcast
9:55 PM 63.1 °F 55.8 °F 77% 29.73 in 10.0 mi SW 8.1 mph - N/A   Overcast
10:15 PM 62.8 °F 55.8 °F 78% 29.73 in 10.0 mi SW 6.9 mph - N/A   Overcast
10:35 PM 62.1 °F 55.8 °F 80% 29.73 in 10.0 mi SSW 5.8 mph - N/A   Overcast
10:36 PM 62.1 °F 55.8 °F 80% 29.73 in 10.0 mi SW 5.8 mph - N/A   Overcast
10:55 PM 61.3 °F 55.8 °F 82% 29.74 in 10.0 mi SW 4.6 mph - N/A   Mostly Cloudy
10:56 PM 61.3 °F 55.8 °F 82% 29.74 in 10.0 mi SW 4.6 mph - N/A   Mostly Cloudy
11:15 PM 61.2 °F 56.1 °F 83% 29.74 in 10.0 mi SSW 5.8 mph - N/A   Overcast
11:35 PM 61.3 °F 55.9 °F 82% 29.74 in 10.0 mi SW 5.8 mph - N/A   Overcast
11:55 PM 61.2 °F 55.8 °F 82% 29.75 in 10.0 mi WSW 6.9 mph - N/A   Scattered Clouds
11:56 PM 61.2 °F 55.8 °F 82% 29.75 in 10.0 mi WSW 6.9 mph - N/A   Scattered Clouds